Time;durP1;ratioP1;P1;durP2;ratioP2;P2;SDS_P1;SDS_P2;PMS_P1;PMS_P2;Temp;Humidity;BMP_temperature;BMP_pressure;BME280_temperature;BME280_humidity;BME280_pressure;Samples;Min_cycle;Max_cycle;Signal;HPM_P1;HPM_P2
2023/02/12 00:01:23;;;;;;;35.90;17.15;;;;;;;4.55;100.00;100775.88;5044704;28;20486;-75
2023/02/12 00:03:49;;;;;;;33.85;16.33;;;;;;;4.54;100.00;100779.53;5052349;28;20107;-75
2023/02/12 00:06:15;;;;;;;31.83;16.90;;;;;;;4.45;100.00;100777.53;5055543;28;20062;-74
2023/02/12 00:08:40;;;;;;;32.15;16.52;;;;;;;4.50;100.00;100774.50;5056827;28;20082;-76
2023/02/12 00:11:08;;;;;;;35.97;18.05;;;;;;;4.52;100.00;100791.34;5056428;28;20079;-75
2023/02/12 00:13:33;;;;;;;37.92;18.45;;;;;;;4.46;100.00;100784.63;5056065;28;20017;-74
2023/02/12 00:15:58;;;;;;;40.47;20.60;;;;;;;4.42;100.00;100774.22;5040035;28;20021;-76
2023/02/12 00:18:23;;;;;;;38.17;18.27;;;;;;;4.51;100.00;100778.91;5044145;28;20509;-75
2023/02/12 00:20:49;;;;;;;38.55;18.58;;;;;;;4.47;100.00;100766.69;5059098;28;20033;-77
2023/02/12 00:23:15;;;;;;;38.50;19.67;;;;;;;4.58;100.00;100777.47;5054319;28;20033;-77
2023/02/12 00:25:41;;;;;;;34.33;17.48;;;;;;;4.68;100.00;100774.94;5065287;28;20021;-78
2023/02/12 00:28:06;;;;;;;32.45;16.55;;;;;;;4.86;100.00;100797.66;5067559;28;20025;-77
2023/02/12 00:30:32;;;;;;;36.17;17.65;;;;;;;4.78;100.00;100779.47;5058035;28;20513;-75
2023/02/12 00:32:57;;;;;;;35.72;16.75;;;;;;;4.74;100.00;100769.09;5049026;28;20025;-76
2023/02/12 00:35:22;;;;;;;32.65;16.70;;;;;;;4.81;100.00;100781.91;5046790;28;20024;-75
2023/02/12 00:37:47;;;;;;;38.95;17.35;;;;;;;4.80;100.00;100782.06;5055227;28;20044;-76
2023/02/12 00:40:13;;;;;;;29.42;15.75;;;;;;;4.81;100.00;100771.19;5055242;28;20035;-75
2023/02/12 00:42:38;;;;;;;31.17;15.85;;;;;;;4.92;100.00;100773.03;5040334;28;20475;-74
2023/02/12 00:45:03;;;;;;;30.35;15.85;;;;;;;4.90;100.00;100779.50;5034869;28;20071;-75
2023/02/12 00:47:29;;;;;;;31.30;16.33;;;;;;;4.82;100.00;100783.66;5045285;28;20028;-75
2023/02/12 00:49:54;;;;;;;31.80;15.88;;;;;;;4.86;100.00;100788.78;5044071;28;20068;-75
2023/02/12 00:52:19;;;;;;;33.35;16.77;;;;;;;4.86;100.00;100784.25;5051264;28;20082;-74
2023/02/12 00:54:45;;;;;;;30.52;15.98;;;;;;;4.74;100.00;100782.50;5047337;28;20065;-76
2023/02/12 00:57:10;;;;;;;28.90;15.43;;;;;;;4.82;100.00;100788.13;5043700;28;20021;-73
2023/02/12 00:59:38;;;;;;;29.05;16.15;;;;;;;4.90;100.00;100783.06;5041733;28;20075;-75
2023/02/12 01:02:04;;;;;;;35.73;17.40;;;;;;;4.82;100.00;100774.72;5043904;28;20021;-76
2023/02/12 01:04:29;;;;;;;31.25;17.38;;;;;;;4.74;100.00;100786.06;5049455;28;20095;-74
2023/02/12 01:06:54;;;;;;;32.40;16.55;;;;;;;4.69;100.00;100769.47;5034638;28;20539;-76
2023/02/12 01:09:20;;;;;;;31.80;16.13;;;;;;;4.72;100.00;100784.47;5036518;28;20028;-76
2023/02/12 01:11:45;;;;;;;36.05;16.75;;;;;;;4.77;100.00;100801.06;5054006;28;20029;-74
2023/02/12 01:14:10;;;;;;;34.22;17.58;;;;;;;4.72;100.00;100797.88;5042277;28;20025;-76
2023/02/12 01:16:36;;;;;;;35.58;17.98;;;;;;;4.50;100.00;100767.31;5042971;28;20120;-75
2023/02/12 01:19:03;;;;;;;32.92;17.20;;;;;;;4.60;100.00;100792.47;5054773;28;20036;-75
2023/02/12 01:21:31;;;;;;;33.15;17.00;;;;;;;4.61;100.00;100785.25;5053098;28;20032;-74
2023/02/12 01:23:57;;;;;;;36.85;17.30;;;;;;;4.44;100.00;100777.66;5051156;28;20119;-75
2023/02/12 01:26:24;;;;;;;32.33;16.92;;;;;;;4.46;100.00;100798.00;5053482;28;20398;-75
2023/02/12 01:28:52;;;;;;;32.08;18.40;;;;;;;4.44;100.00;100794.59;5052769;28;20029;-75
2023/02/12 01:31:21;;;;;;;33.05;17.63;;;;;;;4.61;100.00;100793.31;5055451;28;20070;-75
2023/02/12 01:33:51;;;;;;;33.97;17.55;;;;;;;4.74;100.00;100785.19;5061616;28;21612;-76
2023/02/12 01:36:17;;;;;;;33.65;17.40;;;;;;;4.74;100.00;100783.38;5053593;28;20048;-74
2023/02/12 01:38:42;;;;;;;34.05;18.00;;;;;;;4.76;100.00;100783.25;5039335;28;20060;-74
2023/02/12 01:41:13;;;;;;;35.75;17.70;;;;;;;4.81;100.00;100789.97;5033219;28;20132;-76
2023/02/12 01:43:39;;;;;;;29.73;17.38;;;;;;;4.78;100.00;100775.94;5037769;28;20037;-75
2023/02/12 01:46:05;;;;;;;33.38;17.58;;;;;;;4.85;100.00;100787.91;5043472;28;20419;-75
2023/02/12 01:48:35;;;;;;;32.70;17.10;;;;;;;4.82;100.00;100780.09;5053725;28;20098;-75
2023/02/12 01:51:02;;;;;;;34.40;17.42;;;;;;;4.74;100.00;100774.47;5050865;28;20032;-77
2023/02/12 01:53:33;;;;;;;34.30;17.63;;;;;;;4.75;100.00;100776.19;5053801;28;20035;-76
2023/02/12 01:56:02;;;;;;;35.03;18.20;;;;;;;4.64;100.00;100774.34;5047420;28;20029;-74
2023/02/12 01:58:34;;;;;;;35.47;18.98;;;;;;;4.67;100.00;100770.56;5034461;28;20041;-76
2023/02/12 02:01:01;;;;;;;31.38;17.92;;;;;;;4.60;100.00;100783.56;5034718;28;20029;-77
2023/02/12 02:03:26;;;;;;;32.65;17.80;;;;;;;4.44;100.00;100773.16;5050766;28;20025;-74
2023/02/12 02:05:58;;;;;;;37.22;17.70;;;;;;;4.43;100.00;100771.44;5045880;28;20383;-75
2023/02/12 02:08:24;;;;;;;35.58;17.90;;;;;;;4.38;100.00;100765.59;5052528;28;20074;-76
2023/02/12 02:10:49;;;;;;;39.65;17.77;;;;;;;4.35;100.00;100773.84;5050511;28;20025;-76
2023/02/12 02:16:09;;;;;;;32.92;17.38;;;;;;;4.39;100.00;100770.81;5048702;28;20043;-75
2023/02/12 02:18:46;;;;;;;38.05;18.23;;;;;;;4.49;100.00;100762.09;5043843;28;20104;-74
2023/02/12 02:21:34;;;;;;;36.60;17.95;;;;;;;4.56;100.00;100763.34;5048234;28;20082;-75
2023/02/12 02:24:35;;;;;;;34.40;17.60;;;;;;;4.87;100.00;100760.97;5052920;28;20028;-77
2023/02/12 02:27:42;;;;;;;31.48;16.55;;;;;;;4.85;100.00;100755.75;5087461;28;20040;-78
2023/02/12 02:30:27;;;;;;;32.17;17.60;;;;;;;4.77;100.00;100759.00;4993733;28;20128;-74
2023/02/12 02:33:24;;;;;;;32.45;17.45;;;;;;;4.73;100.00;100757.53;5041196;28;20041;-75
2023/02/12 02:36:22;;;;;;;32.53;16.50;;;;;;;4.66;100.00;100766.16;5039183;28;20112;-75
2023/02/12 02:38:54;;;;;;;33.90;16.65;;;;;;;4.59;100.00;100763.09;5055037;28;20052;-77
2023/02/12 02:41:30;;;;;;;36.13;17.73;;;;;;;4.42;100.00;100753.63;5063302;28;20051;-76
2023/02/12 02:43:56;;;;;;;37.75;18.92;;;;;;;4.43;100.00;100758.06;5056441;28;20084;-78
2023/02/12 02:46:35;;;;;;;31.75;18.00;;;;;;;4.46;100.00;100760.50;5054616;28;20009;-78
2023/02/12 02:49:04;;;;;;;33.67;18.02;;;;;;;4.36;100.00;100751.44;5065271;28;20075;-76
2023/02/12 02:51:35;;;;;;;35.20;17.55;;;;;;;4.52;100.00;100764.53;5057616;28;20025;-77
2023/02/12 02:54:04;;;;;;;37.30;17.80;;;;;;;4.47;100.00;100762.19;5068479;28;20029;-77
2023/02/12 02:56:33;;;;;;;35.38;18.15;;;;;;;4.41;100.00;100768.03;5064398;28;20005;-77
2023/02/12 02:59:04;;;;;;;35.90;17.77;;;;;;;4.31;100.00;100753.59;5064456;28;20048;-75
2023/02/12 03:01:35;;;;;;;35.05;17.25;;;;;;;4.35;100.00;100758.63;5049524;28;20068;-76
2023/02/12 03:04:10;;;;;;;32.50;17.88;;;;;;;4.32;100.00;100768.69;5038829;28;20044;-76
2023/02/12 03:06:45;;;;;;;39.72;18.67;;;;;;;4.26;100.00;100774.53;5048802;28;20047;-77
2023/02/12 03:09:39;;;;;;;36.05;18.10;;;;;;;4.29;100.00;100768.94;5076068;28;20414;-76
2023/02/12 03:12:16;;;;;;;34.38;17.15;;;;;;;4.20;100.00;100758.91;5022246;28;20037;-76
2023/02/12 03:14:53;;;;;;;29.70;16.65;;;;;;;4.31;100.00;100777.72;5048716;28;20383;-77
2023/02/12 03:17:24;;;;;;;32.28;17.30;;;;;;;4.34;100.00;100766.75;5045338;28;20120;-75
2023/02/12 03:20:06;;;;;;;30.38;16.50;;;;;;;4.27;100.00;100758.34;5035420;28;20040;-75
2023/02/12 03:22:36;;;;;;;33.63;16.52;;;;;;;4.48;100.00;100763.91;5047887;28;20032;-74
2023/02/12 03:25:12;;;;;;;35.15;17.20;;;;;;;4.52;100.00;100775.25;5043342;28;20108;-75
2023/02/12 03:27:47;;;;;;;35.65;18.52;;;;;;;4.39;100.00;100780.69;5045082;28;20062;-74
2023/02/12 03:30:13;;;;;;;37.95;18.13;;;;;;;4.31;100.00;100769.69;5036825;28;20029;-75
2023/02/12 03:32:59;;;;;;;38.55;19.05;;;;;;;4.31;100.00;100764.31;5056452;28;20025;-74
2023/02/12 03:35:37;;;;;;;36.95;19.52;;;;;;;4.43;100.00;100779.50;5048248;28;20037;-75
2023/02/12 03:38:09;;;;;;;35.78;17.98;;;;;;;4.37;100.00;100766.53;5050933;28;20036;-76
2023/02/12 03:40:41;;;;;;;34.17;17.83;;;;;;;4.45;100.00;100777.53;5057019;22;20041;-71
2023/02/12 03:43:24;;;;;;;31.80;17.00;;;;;;;4.47;100.00;100775.59;5052415;28;20087;-70
2023/02/12 03:46:12;;;;;;;31.95;16.60;;;;;;;4.44;100.00;100767.78;5054544;28;20028;-68
2023/02/12 03:48:51;;;;;;;35.08;17.85;;;;;;;4.37;100.00;100766.53;5053044;28;20032;-70
2023/02/12 03:51:23;;;;;;;38.20;18.75;;;;;;;4.34;100.00;100769.44;5042207;28;20504;-70
2023/02/12 03:53:49;;;;;;;36.35;19.10;;;;;;;4.34;100.00;100778.34;5035364;28;20044;-70
2023/02/12 03:56:41;;;;;;;38.67;19.83;;;;;;;4.27;100.00;100776.22;5037528;28;20033;-70
2023/02/12 03:59:07;;;;;;;36.33;18.02;;;;;;;4.26;100.00;100779.88;5034830;28;20508;-69
2023/02/12 04:01:33;;;;;;;33.95;17.35;;;;;;;4.28;100.00;100783.31;5039601;28;20029;-73
2023/02/12 04:04:03;;;;;;;33.38;17.38;;;;;;;4.44;100.00;100788.38;5043573;28;20024;-71
2023/02/12 04:06:28;;;;;;;;;;;;;;;4.48;100.00;100787.16;5044867;28;20031;-68
2023/02/12 04:08:57;;;;;;;34.92;17.02;;;;;;;4.38;100.00;100773.63;5036386;28;19999;-70
2023/02/12 04:11:41;;;;;;;36.35;17.00;;;;;;;4.46;100.00;100800.69;5032592;28;20052;-73
2023/02/12 04:14:23;;;;;;;30.42;16.35;;;;;;;4.50;100.00;100787.91;5039756;28;20124;-69
2023/02/12 04:17:13;;;;;;;32.10;16.80;;;;;;;4.49;100.00;100788.88;5035958;28;20028;-71
2023/02/12 04:20:03;;;;;;;30.88;16.98;;;;;;;4.45;100.00;100796.28;5070527;28;20021;-72
2023/02/12 04:22:41;;;;;;;33.08;17.25;;;;;;;4.44;100.00;100789.22;5032941;28;20029;-70
2023/02/12 04:25:09;;;;;;;30.83;16.75;;;;;;;4.50;100.00;100794.13;5043309;28;20056;-70
2023/02/12 04:28:05;;;;;;;34.30;17.17;;;;;;;4.41;100.00;100784.09;5026463;28;20025;-68
2023/02/12 04:30:57;;;;;;;36.17;15.50;;;;;;;4.51;100.00;100801.22;5023264;28;20037;-68
2023/02/12 04:33:25;;;;;;;28.48;15.43;;;;;;;4.36;100.00;100786.28;5034112;28;20041;-70
2023/02/12 04:35:57;;;;;;;35.20;16.05;;;;;;;4.38;100.00;100803.09;5030958;28;20103;-69
2023/02/12 04:38:50;;;;;;;31.98;16.10;;;;;;;4.34;100.00;100806.97;5042718;28;20104;-70
2023/02/12 04:41:16;;;;;;;35.80;16.02;;;;;;;4.48;100.00;100795.19;5031804;28;20068;-70
2023/02/12 04:43:41;;;;;;;28.98;15.70;;;;;;;4.43;100.00;100795.56;5040892;28;20053;-70
2023/02/12 04:46:07;;;;;;;30.92;16.50;;;;;;;4.40;100.00;100790.41;5037851;28;20026;-71
2023/02/12 04:48:33;;;;;;;30.42;16.63;;;;;;;4.37;100.00;100793.31;5047801;28;20068;-75
2023/02/12 04:50:59;;;;;;;33.72;18.23;;;;;;;4.43;100.00;100808.09;5027329;28;20029;-71
2023/02/12 04:53:25;;;;;;;33.55;16.70;;;;;;;4.40;100.00;100798.44;5039501;28;20025;-70
2023/02/12 04:55:50;;;;;;;30.20;16.13;;;;;;;4.42;100.00;100803.72;5015374;28;20021;-71
2023/02/12 04:58:16;;;;;;;34.17;15.82;;;;;;;4.42;100.00;100814.44;5041487;28;20551;-70
2023/02/12 05:00:41;;;;;;;33.67;16.77;;;;;;;4.27;100.00;100797.66;5031254;28;20069;-71
2023/02/12 05:03:06;;;;;;;30.95;15.57;;;;;;;4.26;100.00;100801.31;5026271;28;20034;-72
2023/02/12 05:05:32;;;;;;;33.53;17.13;;;;;;;4.25;100.00;100804.97;5033542;28;20021;-73
2023/02/12 05:07:57;;;;;;;26.95;14.98;;;;;;;4.20;100.00;100785.72;5034655;28;20025;-71
2023/02/12 05:10:23;;;;;;;31.70;15.63;;;;;;;4.18;100.00;100786.66;5029592;28;20025;-72
2023/02/12 05:12:54;;;;;;;35.17;17.35;;;;;;;4.33;100.00;100797.22;5030706;28;20029;-72
2023/02/12 05:15:20;;;;;;;30.45;16.08;;;;;;;4.41;100.00;100794.81;5036733;28;20025;-72
2023/02/12 05:17:45;;;;;;;30.45;14.70;;;;;;;4.46;100.00;100798.00;5031868;28;20207;-70
2023/02/12 05:20:12;;;;;;;30.77;15.02;;;;;;;4.41;100.00;100784.09;5045283;28;20029;-72
2023/02/12 05:22:37;;;;;;;32.78;16.50;;;;;;;4.37;100.00;100790.66;5051411;28;20093;-76
2023/02/12 05:25:04;;;;;;;30.58;15.98;;;;;;;4.36;100.00;100786.28;5044861;28;20483;-75
2023/02/12 05:27:29;;;;;;;33.22;15.70;;;;;;;4.30;100.00;100782.22;5042169;28;20025;-77
2023/02/12 05:29:55;;;;;;;30.95;16.40;;;;;;;4.50;100.00;100801.31;5059096;28;20041;-74
2023/02/12 05:32:25;;;;;;;28.35;16.65;;;;;;;4.42;100.00;100793.00;5046758;28;20063;-82
2023/02/12 05:34:52;;;;;;;28.67;15.90;;;;;;;3.73;100.00;100698.03;5058967;28;20039;-82
2023/02/12 05:37:17;;;;;;;30.30;15.70;;;;;;;4.29;100.00;100796.56;5042903;28;20034;-72
2023/02/12 05:40:17;;;;;;;36.15;17.33;;;;;;;4.27;100.00;100819.09;5050587;28;20037;-83
2023/02/12 05:42:42;;;;;;;30.38;14.70;;;;;;;3.86;100.00;100743.50;5055053;28;20040;-72
2023/02/12 05:45:08;;;;;;;30.55;15.73;;;;;;;3.96;100.00;100738.34;5033048;28;20421;-72
2023/02/12 05:47:33;;;;;;;33.83;15.77;;;;;;;4.26;100.00;100788.78;5032337;28;20028;-72
2023/02/12 05:49:58;;;;;;;29.75;15.63;;;;;;;4.46;100.00;100806.06;5040105;28;20052;-73
2023/02/12 05:52:23;;;;;;;29.85;15.95;;;;;;;4.25;100.00;100772.81;5028377;28;20543;-74
2023/02/12 05:54:49;;;;;;;33.67;15.73;;;;;;;4.45;100.00;100806.16;5031154;28;20076;-72
2023/02/12 05:57:14;;;;;;;29.08;15.07;;;;;;;4.47;100.00;100805.06;5035434;28;20071;-74
2023/02/12 05:59:40;;;;;;;28.23;16.42;;;;;;;4.40;100.00;100793.09;5060767;28;20017;-76
2023/02/12 06:02:05;;;;;;;32.05;16.30;;;;;;;4.26;100.00;100774.53;5046628;28;20037;-75
2023/02/12 06:04:30;;;;;;;34.83;19.20;;;;;;;4.07;100.00;100789.28;5035444;28;20029;-72
2023/02/12 06:06:56;;;;;;;35.35;18.48;;;;;;;4.20;100.00;100801.78;5030904;28;20033;-72
2023/02/12 06:09:22;;;;;;;37.30;18.55;;;;;;;4.26;100.00;100812.03;5042097;28;20022;-76
2023/02/12 06:11:48;;;;;;;31.80;18.05;;;;;;;4.35;100.00;100787.25;5033632;28;20029;-75
2023/02/12 06:14:15;;;;;;;34.80;19.08;;;;;;;4.29;100.00;100796.56;5025396;28;20159;-71
2023/02/12 06:16:43;;;;;;;32.13;18.08;;;;;;;4.11;100.00;100795.25;5048202;28;20036;-72
2023/02/12 06:19:08;;;;;;;38.92;19.80;;;;;;;4.05;100.00;100796.56;5033130;28;20108;-75
2023/02/12 06:21:34;;;;;;;34.88;19.33;;;;;;;4.06;100.00;100803.66;5045932;28;20048;-70
2023/02/12 06:24:00;;;;;;;36.28;19.38;;;;;;;3.93;100.00;100808.19;5044814;28;20029;-71
2023/02/12 06:26:25;;;;;;;35.13;18.88;;;;;;;3.89;100.00;100822.75;5039956;28;20372;-70
2023/02/12 06:29:00;;;;;;;35.45;18.42;;;;;;;3.77;100.00;100799.53;5037846;28;20310;-81
2023/02/12 06:31:31;;;;;;;40.15;18.60;;;;;;;3.70;100.00;100794.63;5052324;28;20048;-79
2023/02/12 06:34:01;;;;;;;36.13;18.15;;;;;;;3.81;100.00;100817.09;5033103;28;20517;-72
2023/02/12 06:36:26;;;;;;;;;;;;;;;3.79;100.00;100825.25;5056160;28;20033;-75
2023/02/12 06:38:52;;;;;;;38.03;19.70;;;;;;;3.71;100.00;100814.22;5034991;28;19908;-76
2023/02/12 06:41:17;;;;;;;36.83;18.77;;;;;;;3.88;100.00;100826.41;5038267;28;20445;-70
2023/02/12 06:43:43;;;;;;;35.17;19.65;;;;;;;3.98;100.00;100827.44;5041811;28;20037;-73
2023/02/12 06:46:08;;;;;;;39.10;19.58;;;;;;;4.07;100.00;100818.75;5043673;28;20036;-69
2023/02/12 06:48:34;;;;;;;34.97;19.25;;;;;;;4.16;100.00;100827.94;5032945;28;20502;-69
2023/02/12 06:51:04;;;;;;;36.75;19.13;;;;;;;4.29;100.00;100825.19;5032989;28;20071;-71
2023/02/12 06:53:30;;;;;;;36.92;19.88;;;;;;;4.25;100.00;100837.97;5023053;28;20104;-74
2023/02/12 06:55:55;;;;;;;33.83;18.85;;;;;;;4.25;100.00;100831.78;5030874;28;20101;-68
2023/02/12 06:58:20;;;;;;;40.72;20.15;;;;;;;4.35;100.00;100838.16;5027527;28;20033;-78
2023/02/12 07:00:45;;;;;;;41.22;21.17;;;;;;;4.35;100.00;100830.13;5021718;28;20415;-73
2023/02/12 07:03:11;;;;;;;39.95;20.33;;;;;;;4.39;100.00;100818.19;5021336;28;20037;-77
2023/02/12 07:05:38;;;;;;;50.53;20.58;;;;;;;4.33;100.00;100818.66;5028777;28;20048;-74
2023/02/12 07:08:04;;;;;;;41.05;20.98;;;;;;;4.48;100.00;100832.72;5045446;28;20122;-73
2023/02/12 07:10:29;;;;;;;37.22;20.73;;;;;;;4.59;100.00;100839.00;5033652;28;20021;-72
2023/02/12 07:12:54;;;;;;;40.15;20.88;;;;;;;4.55;100.00;100832.16;5037516;28;20036;-73
2023/02/12 07:15:28;;;;;;;37.15;19.00;;;;;;;4.58;100.00;100834.63;5038214;28;20029;-75
2023/02/12 07:17:53;;;;;;;43.53;22.35;;;;;;;4.54;100.00;100829.59;5039979;28;20097;-70
2023/02/12 07:20:18;;;;;;;38.85;21.27;;;;;;;4.61;100.00;100844.25;5054018;28;20493;-67
2023/02/12 07:22:44;;;;;;;42.70;21.92;;;;;;;4.68;100.00;100829.41;5038348;28;20032;-73
2023/02/12 07:25:09;;;;;;;44.05;21.17;;;;;;;4.76;100.00;100826.16;5021738;28;20021;-77
2023/02/12 07:27:37;;;;;;;45.45;22.33;;;;;;;4.88;100.00;100832.44;5031995;28;20083;-78
2023/02/12 07:30:05;;;;;;;42.33;22.03;;;;;;;4.88;100.00;100830.59;5021176;28;20450;-77
2023/02/12 07:32:33;;;;;;;44.60;21.70;;;;;;;4.78;100.00;100819.69;5037171;28;20121;-76
2023/02/12 07:34:59;;;;;;;39.45;21.45;;;;;;;4.85;100.00;100838.88;5023647;28;20368;-76
2023/02/12 07:37:24;;;;;;;35.92;20.00;;;;;;;4.78;100.00;100841.16;5055374;28;20032;-77
2023/02/12 07:39:50;;;;;;;37.72;19.30;;;;;;;4.57;100.00;100816.81;5036499;28;20045;-76
2023/02/12 07:42:16;;;;;;;38.65;20.05;;;;;;;4.83;100.00;100835.44;5052540;28;20512;-77
2023/02/12 07:44:42;;;;;;;40.60;21.35;;;;;;;4.80;100.00;100841.06;5037922;28;20035;-76
2023/02/12 07:47:07;;;;;;;52.13;22.73;;;;;;;4.71;100.00;100823.81;5038434;28;20021;-77
2023/02/12 07:49:32;;;;;;;48.95;23.75;;;;;;;4.76;100.00;100840.41;5033880;28;20543;-76
2023/02/12 07:52:12;;;;;;;40.25;20.55;;;;;;;4.82;100.00;100841.78;5038978;28;20063;-78
2023/02/12 07:54:37;;;;;;;41.28;20.65;;;;;;;4.95;100.00;100847.94;5039651;28;20030;-76
2023/02/12 07:57:02;;;;;;;43.58;20.65;;;;;;;5.08;100.00;100836.25;5032141;28;20037;-79
2023/02/12 07:59:28;;;;;;;41.10;19.50;;;;;;;5.14;100.00;100835.78;5037154;28;20021;-77
2023/02/12 08:01:55;;;;;;;37.65;19.27;;;;;;;5.23;100.00;100837.75;5039056;28;20036;-77
2023/02/12 08:04:24;;;;;;;35.65;19.45;;;;;;;5.33;100.00;100856.69;5040579;28;20025;-76
2023/02/12 08:06:52;;;;;;;40.42;21.23;;;;;;;5.40;100.00;100842.66;5042680;28;20219;-78
2023/02/12 08:09:21;;;;;;;41.10;22.67;;;;;;;5.55;100.00;100831.69;5044932;28;20032;-79
2023/02/12 08:11:47;;;;;;;37.63;20.70;;;;;;;5.75;100.00;100835.50;5055534;28;20036;-79
2023/02/12 08:14:14;;;;;;;39.53;20.35;;;;;;;5.70;100.00;100823.28;5030105;28;20041;-77
2023/02/12 08:16:41;;;;;;;42.80;19.45;;;;;;;6.08;100.00;100848.09;5029019;28;20100;-80
2023/02/12 08:19:07;;;;;;;41.72;20.50;;;;;;;6.01;100.00;100846.88;5036753;28;20031;-80
2023/02/12 08:21:32;;;;;;;37.42;20.45;;;;;;;6.09;100.00;100828.28;5035803;28;20030;-77
2023/02/12 08:27:10;;;;;;;41.85;20.88;;;;;;;6.57;100.00;100825.22;5037236;28;20052;-77
2023/02/12 08:29:35;;;;;;;37.72;19.23;;;;;;;6.66;100.00;100832.53;5026389;28;20399;-79
2023/02/12 08:32:02;;;;;;;43.83;19.98;;;;;;;6.65;100.00;100841.56;5032510;28;20803;-77
2023/02/12 08:34:30;;;;;;;40.60;19.88;;;;;;;6.66;100.00;100837.06;5034108;28;20017;-78
2023/02/12 08:36:57;;;;;;;37.22;20.08;;;;;;;6.74;100.00;100834.59;5034714;28;20538;-75
2023/02/12 08:39:23;;;;;;;38.40;19.15;;;;;;;6.72;100.00;100842.78;5039663;28;20036;-77
2023/02/12 08:41:50;;;;;;;33.58;19.75;;;;;;;6.89;100.00;100851.25;5038404;28;20105;-77
2023/02/12 08:44:16;;;;;;;36.30;19.92;;;;;;;6.96;100.00;100849.75;5035297;28;20083;-77
2023/02/12 08:46:45;;;;;;;43.55;21.50;;;;;;;6.94;100.00;100833.75;5029735;28;20126;-77
2023/02/12 08:49:14;;;;;;;37.88;20.05;;;;;;;7.08;100.00;100846.03;5035408;28;20156;-78
2023/02/12 08:51:47;;;;;;;38.05;20.00;;;;;;;7.27;100.00;100855.22;5033343;28;20026;-77
2023/02/12 08:54:15;;;;;;;40.15;21.75;;;;;;;7.28;100.00;100851.53;5033468;28;20029;-77
2023/02/12 08:56:41;;;;;;;40.85;21.65;;;;;;;7.27;100.00;100855.22;5032312;28;20095;-77
2023/02/12 08:59:11;;;;;;;38.47;20.70;;;;;;;7.23;100.00;100831.28;5036157;28;20107;-78
2023/02/12 09:01:37;;;;;;;33.20;20.55;;;;;;;7.28;100.00;100833.53;5031600;28;20037;-79
2023/02/12 09:04:04;;;;;;;36.17;19.75;;;;;;;7.73;100.00;100843.13;5029955;28;20112;-77
2023/02/12 09:06:32;;;;;;;40.15;21.35;;;;;;;7.83;100.00;100852.13;5038670;28;20025;-77
2023/02/12 09:08:57;;;;;;;41.78;21.73;;;;;;;7.59;100.00;100837.13;5030956;28;20445;-76
2023/02/12 09:11:29;;;;;;;42.45;20.42;;;;;;;7.76;100.00;100848.28;5040003;28;20021;-77
2023/02/12 09:13:56;;;;;;;37.47;20.10;;;;;;;7.93;100.00;100853.00;5031646;28;20051;-76
2023/02/12 09:16:21;;;;;;;39.42;21.40;;;;;;;7.93;100.00;100839.53;5038455;28;20025;-77
2023/02/12 09:18:46;;;;;;;38.17;20.05;;;;;;;7.92;100.00;100826.22;5044991;28;20364;-79
2023/02/12 09:21:15;;;;;;;34.03;20.02;;;;;;;8.41;100.00;100844.28;5019799;28;20026;-80
2023/02/12 09:23:41;;;;;;;38.15;19.70;;;;;;;8.30;100.00;100814.66;5041315;28;20061;-76
2023/02/12 09:26:09;;;;;;;39.13;20.40;;;;;;;8.47;100.00;100832.91;5035853;28;20653;-76
2023/02/12 09:28:35;;;;;;;39.25;21.42;;;;;;;8.63;100.00;100843.16;5046073;28;20025;-79
2023/02/12 09:31:05;;;;;;;40.38;22.20;;;;;;;8.99;100.00;100844.28;5025232;28;20028;-76
2023/02/12 09:33:31;;;;;;;37.42;19.90;;;;;;;9.07;100.00;100829.22;5034566;28;20033;-78
2023/02/12 09:36:01;;;;;;;38.78;19.75;;;;;;;9.21;100.00;100843.13;5031598;28;20029;-76
2023/02/12 09:38:26;;;;;;;36.15;20.08;;;;;;;9.35;100.00;100838.25;5028406;28;20021;-79
2023/02/12 09:40:52;;;;;;;34.35;18.25;;;;;;;9.73;100.00;100844.56;5065732;22;20039;-77
2023/02/12 09:43:35;;;;;;;37.70;19.38;;;;;;;9.78;100.00;100834.16;5047337;28;20489;-76
2023/02/12 09:46:09;;;;;;;36.67;18.50;;;;;;;9.95;100.00;100821.69;5066518;28;20562;-76
2023/02/12 09:48:44;;;;;;;30.73;17.90;;;;;;;10.39;100.00;100832.75;5054596;28;20473;-77
2023/02/12 09:51:10;;;;;;;31.95;17.85;;;;;;;10.40;100.00;100826.31;5047136;28;20044;-78
2023/02/12 09:53:41;;;;;;;30.45;16.80;;;;;;;10.44;100.00;100835.84;5042812;28;20032;-77
2023/02/12 09:56:17;;;;;;;31.50;16.63;;;;;;;10.58;100.00;100837.16;5032792;28;20429;-78
2023/02/12 09:58:45;;;;;;;28.75;15.48;;;;;;;10.76;100.00;100827.19;5030904;28;20025;-81
2023/02/12 10:01:16;;;;;;;34.42;15.10;;;;;;;10.60;100.00;100832.47;5052488;28;20020;-78
2023/02/12 10:03:43;;;;;;;30.30;15.25;;;;;;;10.78;100.00;100821.63;5043626;28;20035;-80
2023/02/12 10:06:22;;;;;;;28.27;14.82;;;;;;;11.12;100.00;100819.91;5033533;28;20036;-80
2023/02/12 10:09:09;;;;;;;29.20;13.55;;;;;;;10.93;100.00;100831.75;5036741;28;20036;-79
2023/02/12 10:11:45;;;;;;;25.05;12.25;;;;;;;10.79;100.00;100835.00;5039837;28;20037;-81
2023/02/12 10:14:29;;;;;;;23.20;12.63;;;;;;;10.83;100.00;100835.56;5056673;28;20385;-80
2023/02/12 10:17:13;;;;;;;21.67;11.60;;;;;;;10.97;100.00;100832.28;5060984;28;20524;-78
2023/02/12 10:19:59;;;;;;;21.27;11.05;;;;;;;11.10;100.00;100829.19;5029206;28;20440;-79
2023/02/12 10:22:42;;;;;;;24.52;11.77;;;;;;;10.89;100.00;100834.94;5046893;28;20032;-76
2023/02/12 10:25:11;;;;;;;23.20;11.35;;;;;;;10.81;100.00;100833.00;5034777;28;20029;-71
2023/02/12 10:27:42;;;;;;;25.48;11.43;;;;;;;10.96;100.00;100827.88;5053716;28;20017;-72
2023/02/12 10:30:20;;;;;;;22.90;10.70;;;;;;;10.98;100.00;100831.31;5033898;28;20506;-72
2023/02/12 10:32:49;;;;;;;20.60;11.32;;;;;;;10.65;100.00;100839.09;5056050;28;20024;-77
2023/02/12 10:35:15;;;;;;;;;;;;;;;10.70;100.00;100839.50;5035807;28;20128;-73
2023/02/12 10:37:50;;;;;;;15.52;8.15;;;;;;;10.87;100.00;100836.94;5056237;28;20003;-77
2023/02/12 10:40:20;;;;;;;15.68;7.30;;;;;;;10.48;100.00;100835.41;5064723;28;20069;-78
2023/02/12 10:42:49;;;;;;;14.68;8.20;;;;;;;10.23;100.00;100827.97;5052854;28;20033;-78
2023/02/12 10:45:18;;;;;;;15.05;7.07;;;;;;;10.26;100.00;100823.09;5035427;28;20375;-73
2023/02/12 10:47:44;;;;;;;7.72;4.63;;;;;;;10.25;100.00;100818.69;5035283;28;20033;-75
2023/02/12 10:50:27;;;;;;;5.22;2.85;;;;;;;10.14;100.00;100816.22;5056252;28;20458;-76
2023/02/12 10:52:57;;;;;;;5.97;3.25;;;;;;;10.21;100.00;100822.69;5040310;28;20029;-77
2023/02/12 10:55:24;;;;;;;8.32;2.97;;;;;;;10.41;100.00;100814.50;5057588;28;20074;-79
2023/02/12 10:57:50;;;;;;;7.05;4.00;;;;;;;10.43;100.00;100809.81;5026677;28;20049;-72
2023/02/12 11:00:37;;;;;;;10.15;4.63;;;;;;;10.65;100.00;100814.75;5045705;28;20020;-74
2023/02/12 11:03:22;;;;;;;8.18;4.15;;;;;;;10.63;100.00;100802.38;5052500;28;20083;-73
2023/02/12 11:05:48;;;;;;;7.75;2.70;;;;;;;10.50;100.00;100803.59;5057148;28;20025;-72
2023/02/12 11:08:33;;;;;;;9.82;4.30;;;;;;;10.64;100.00;100804.09;5055994;28;20091;-72
2023/02/12 11:11:05;;;;;;;7.78;3.65;;;;;;;11.11;100.00;100804.66;5035700;28;20035;-68
2023/02/12 11:13:30;;;;;;;4.88;2.70;;;;;;;11.23;100.00;100794.41;5048630;28;20040;-72
2023/02/12 11:15:56;;;;;;;7.38;3.17;;;;;;;11.07;100.00;100799.72;5055904;28;20029;-69
2023/02/12 11:18:31;;;;;;;10.40;4.80;;;;;;;11.11;100.00;100785.69;5055513;28;20038;-72
2023/02/12 11:21:06;;;;;;;8.52;4.30;;;;;;;11.12;100.00;100798.22;5055507;28;20390;-73
2023/02/12 11:23:37;;;;;;;25.95;11.48;;;;;;;10.94;100.00;100786.56;5045202;28;20024;-74
2023/02/12 11:26:16;;;;;;;18.55;9.02;;;;;;;11.12;100.00;100789.25;5053833;28;20059;-73
2023/02/12 11:28:52;;;;;;;10.77;5.82;;;;;;;11.23;100.00;100790.84;5065744;28;20021;-70